createdAt,value
2022-08-26T00:01:42.275Z,54.03
2022-08-26T00:04:12.020Z,54.33
2022-08-26T00:06:39.145Z,54.26
2022-08-26T00:09:09.881Z,55.61
2022-08-26T00:11:36.791Z,56.75
2022-08-26T00:14:05.162Z,54.50
2022-08-26T00:16:32.049Z,54.48
2022-08-26T00:18:59.294Z,64.48
2022-08-26T00:21:25.911Z,58.16
2022-08-26T00:23:52.575Z,57.29
2022-08-26T00:26:19.296Z,54.95
2022-08-26T00:28:47.459Z,57.94
2022-08-26T00:31:14.755Z,57.30
2022-08-26T00:33:41.829Z,56.96
2022-08-26T00:36:09.461Z,57.24
2022-08-26T00:38:46.734Z,55.51
2022-08-26T00:41:13.793Z,59.98
2022-08-26T00:43:47.629Z,57.03
2022-08-26T00:46:19.800Z,56.85
2022-08-26T00:48:50.177Z,56.22
2022-08-26T00:51:29.766Z,63.01
2022-08-26T00:54:07.601Z,62.93
2022-08-26T00:56:46.965Z,64.28
2022-08-26T00:59:17.235Z,58.51
2022-08-26T01:01:45.961Z,58.54
2022-08-26T01:04:17.731Z,63.99
2022-08-26T01:06:45.413Z,59.37
2022-08-26T01:09:12.586Z,61.34
2022-08-26T01:11:41.043Z,62.01
2022-08-26T01:14:08.413Z,65.60
2022-08-26T01:16:36.298Z,61.80
2022-08-26T01:19:14.435Z,66.24
2022-08-26T01:21:50.038Z,74.38
2022-08-26T01:24:17.239Z,63.85
2022-08-26T01:26:45.411Z,63.17
2022-08-26T01:29:15.991Z,68.23
2022-08-26T01:31:46.837Z,77.42
2022-08-26T01:34:19.671Z,65.52
2022-08-26T01:36:51.665Z,73.88
2022-08-26T01:39:19.261Z,67.13
2022-08-26T01:41:47.542Z,64.82
2022-08-26T01:44:23.819Z,67.85
2022-08-26T01:46:52.864Z,69.36
2022-08-26T01:49:22.531Z,70.93
2022-08-26T01:51:53.709Z,68.92
2022-08-26T01:54:23.021Z,71.90
2022-08-26T01:56:51.705Z,65.88
2022-08-26T01:59:20.515Z,68.70
2022-08-26T02:01:48.699Z,69.25
2022-08-26T02:04:23.433Z,75.52
2022-08-26T02:06:51.706Z,68.94
2022-08-26T02:09:20.735Z,84.11
2022-08-26T02:11:47.777Z,76.27
2022-08-26T02:14:22.929Z,78.87
2022-08-26T02:16:55.954Z,81.44
2022-08-26T02:19:27.751Z,70.52
2022-08-26T02:21:54.492Z,71.56
2022-08-26T02:24:27.852Z,76.07
2022-08-26T02:26:57.603Z,74.91
2022-08-26T02:29:31.625Z,84.13
2022-08-26T02:31:58.762Z,84.02
2022-08-26T02:34:31.995Z,75.62
2022-08-26T02:37:05.285Z,84.79
2022-08-26T02:39:33.862Z,73.13
2022-08-26T02:42:01.646Z,74.11
2022-08-26T02:44:29.117Z,72.73
2022-08-26T02:46:56.166Z,89.14
2022-08-26T02:49:24.282Z,81.56
2022-08-26T02:51:51.711Z,73.85
2022-08-26T02:54:21.319Z,73.11
2022-08-26T02:56:49.316Z,69.89
2022-08-26T02:59:15.866Z,75.55
2022-08-26T03:01:44.353Z,87.91
2022-08-26T03:04:12.568Z,79.48
2022-08-26T03:06:41.638Z,76.05
2022-08-26T03:09:08.425Z,73.55
2022-08-26T03:11:36.557Z,84.98
2022-08-26T03:14:04.388Z,90.89
2022-08-26T03:16:33.426Z,74.52
2022-08-26T03:19:00.974Z,75.04
2022-08-26T03:21:27.592Z,71.55
2022-08-26T03:23:54.229Z,75.42
2022-08-26T03:26:28.290Z,84.94
2022-08-26T03:29:13.908Z,72.33
2022-08-26T03:31:41.057Z,75.18
2022-08-26T03:34:09.678Z,70.35
2022-08-26T03:36:38.815Z,85.41
2022-08-26T03:39:07.975Z,74.13
2022-08-26T03:41:35.924Z,75.21
2022-08-26T03:44:04.185Z,85.20
2022-08-26T03:46:33.181Z,83.23
2022-08-26T03:49:01.924Z,72.93
2022-08-26T03:51:28.961Z,77.78
2022-08-26T03:53:55.972Z,73.62
2022-08-26T03:56:23.858Z,73.26
2022-08-26T03:58:50.920Z,69.76
2022-08-26T04:01:17.865Z,74.50
2022-08-26T04:04:00.149Z,78.47
2022-08-26T04:06:32.992Z,82.68
2022-08-26T04:09:02.319Z,70.70
2022-08-26T04:11:34.309Z,72.40
2022-08-26T04:14:05.333Z,73.98
2022-08-26T04:16:32.467Z,71.99
2022-08-26T04:18:59.531Z,84.58
2022-08-26T04:21:27.281Z,75.66
2022-08-26T04:23:54.563Z,78.67
2022-08-26T04:26:24.325Z,75.82
2022-08-26T04:28:52.662Z,74.97
2022-08-26T04:31:20.307Z,76.56
2022-08-26T04:33:49.734Z,81.47
2022-08-26T04:36:16.467Z,73.14
2022-08-26T04:38:43.431Z,85.91
2022-08-26T04:41:15.614Z,77.82
2022-08-26T04:43:44.607Z,74.17
2022-08-26T04:46:13.039Z,78.71
2022-08-26T04:48:42.087Z,81.73
2022-08-26T04:51:09.935Z,75.53
2022-08-26T04:53:37.260Z,86.71
2022-08-26T04:56:04.425Z,77.06
2022-08-26T04:58:32.573Z,79.55
2022-08-26T05:00:59.523Z,80.45
2022-08-26T05:03:30.205Z,92.98
2022-08-26T05:05:58.246Z,76.90
2022-08-26T05:08:25.158Z,79.13
2022-08-26T05:10:56.175Z,75.48
2022-08-26T05:13:26.564Z,91.56
2022-08-26T05:15:54.398Z,76.86
2022-08-26T05:18:23.184Z,86.97
2022-08-26T05:20:54.529Z,75.00
2022-08-26T05:23:23.053Z,75.94
2022-08-26T05:25:55.799Z,75.13
2022-08-26T05:28:25.647Z,77.77
2022-08-26T05:30:52.432Z,77.94
2022-08-26T05:33:19.592Z,75.79
2022-08-26T05:35:47.116Z,72.32
2022-08-26T05:38:21.492Z,76.00
2022-08-26T05:40:52.774Z,90.19
2022-08-26T05:43:20.940Z,73.03
2022-08-26T05:45:49.942Z,80.27
2022-08-26T05:48:22.831Z,79.74
2022-08-26T05:50:53.280Z,94.30
2022-08-26T05:53:21.858Z,82.29
2022-08-26T05:55:51.691Z,77.54
2022-08-26T05:58:20.880Z,90.42
2022-08-26T06:01:00.982Z,88.25
2022-08-26T06:03:29.013Z,80.28
2022-08-26T06:05:56.784Z,77.99
2022-08-26T06:08:24.095Z,82.69
2022-08-26T06:10:53.625Z,74.67
2022-08-26T06:13:23.825Z,82.48
2022-08-26T06:15:51.621Z,80.70
2022-08-26T06:18:21.818Z,90.89
2022-08-26T06:20:57.959Z,88.72
2022-08-26T06:23:45.685Z,79.54
2022-08-26T06:26:13.750Z,78.18
2022-08-26T06:28:40.397Z,74.47
2022-08-26T06:31:10.432Z,78.78
2022-08-26T06:33:37.691Z,78.80
2022-08-26T06:36:06.865Z,74.96
2022-08-26T06:38:33.541Z,80.04
2022-08-26T06:41:00.963Z,77.51
2022-08-26T06:43:29.635Z,74.03
2022-08-26T06:46:09.080Z,78.86
2022-08-26T06:48:36.028Z,78.02
2022-08-26T06:51:09.237Z,77.68
2022-08-26T06:53:37.287Z,76.67
2022-08-26T06:56:06.776Z,75.93
2022-08-26T06:58:34.868Z,77.45
2022-08-26T07:01:11.641Z,74.82
2022-08-26T07:03:39.810Z,73.40
2022-08-26T07:06:06.978Z,73.55
2022-08-26T07:08:33.894Z,74.48
2022-08-26T07:11:05.488Z,80.42
2022-08-26T07:13:33.210Z,74.98
2022-08-26T07:16:02.872Z,75.79
2022-08-26T07:18:29.856Z,75.54
2022-08-26T07:20:56.414Z,72.79
2022-08-26T07:23:23.364Z,77.33
2022-08-26T07:25:49.989Z,72.46
2022-08-26T07:28:16.633Z,73.45
2022-08-26T07:30:43.524Z,72.82
2022-08-26T07:33:10.148Z,75.94
2022-08-26T07:35:38.033Z,76.22
2022-08-26T07:38:04.656Z,74.80
2022-08-26T07:40:32.137Z,72.96
2022-08-26T07:43:00.928Z,78.54
2022-08-26T07:45:27.633Z,74.94
2022-08-26T07:47:54.589Z,75.09
2022-08-26T07:50:22.383Z,74.51
2022-08-26T07:53:10.595Z,73.19
2022-08-26T07:55:37.535Z,73.88
2022-08-26T07:58:05.672Z,75.12
2022-08-26T08:00:33.537Z,72.55
2022-08-26T08:03:04.105Z,71.87
2022-08-26T08:05:33.490Z,71.87
2022-08-26T08:08:27.135Z,73.59
2022-08-26T08:10:52.240Z,74.48
2022-08-26T08:13:19.031Z,71.42
2022-08-26T08:15:46.953Z,72.44
2022-08-26T08:18:17.055Z,72.06
2022-08-26T08:20:47.650Z,72.73
2022-08-26T08:23:31.605Z,75.87
2022-08-26T08:26:09.206Z,74.83
2022-08-26T08:28:38.992Z,73.27
2022-08-26T08:31:06.314Z,75.76
2022-08-26T08:33:35.029Z,72.33
2022-08-26T08:36:01.836Z,73.46
2022-08-26T08:38:28.626Z,72.95
2022-08-26T08:40:55.657Z,72.45
2022-08-26T08:43:32.124Z,77.99
2022-08-26T08:46:10.290Z,74.97
2022-08-26T08:48:43.028Z,72.56
2022-08-26T08:51:22.219Z,74.94
2022-08-26T08:53:51.349Z,74.13
2022-08-26T08:56:32.414Z,73.44
2022-08-26T08:58:59.228Z,74.58
2022-08-26T09:01:47.542Z,73.21
2022-08-26T09:04:40.393Z,74.56
2022-08-26T09:07:13.350Z,72.45
2022-08-26T09:09:46.020Z,72.11
2022-08-26T09:12:20.655Z,72.66
2022-08-26T09:15:07.658Z,73.28
2022-08-26T09:18:10.806Z,76.00
2022-08-26T09:20:48.796Z,71.47
2022-08-26T09:23:15.545Z,71.64
2022-08-26T09:25:56.446Z,72.58
2022-08-26T09:28:25.532Z,71.03
2022-08-26T09:31:27.726Z,73.70
2022-08-26T09:34:17.783Z,72.27
2022-08-26T09:36:49.105Z,72.60
2022-08-26T09:39:25.861Z,74.12
2022-08-26T09:42:11.940Z,72.49
2022-08-26T09:44:55.883Z,73.90
2022-08-26T09:47:30.260Z,74.94
2022-08-26T09:50:38.666Z,72.13
2022-08-26T09:53:14.524Z,72.27
2022-08-26T09:55:44.095Z,73.18
2022-08-26T09:58:34.976Z,72.44
2022-08-26T10:01:07.643Z,71.77
2022-08-26T10:03:38.043Z,71.33
2022-08-26T10:06:20.980Z,72.12
2022-08-26T10:08:54.937Z,74.14
2022-08-26T10:11:59.197Z,75.30
2022-08-26T10:14:39.853Z,74.44
2022-08-26T10:17:10.006Z,74.86
2022-08-26T10:19:55.957Z,75.86
2022-08-26T10:22:51.261Z,74.14
2022-08-26T10:25:26.191Z,74.58
2022-08-26T10:28:09.501Z,74.58
2022-08-26T10:30:50.910Z,73.97
2022-08-26T10:33:18.479Z,72.04
2022-08-26T10:35:52.297Z,73.30
2022-08-26T10:38:27.492Z,73.07
2022-08-26T10:41:10.364Z,73.07
2022-08-26T10:43:42.732Z,71.52
2022-08-26T10:46:15.412Z,72.09
2022-08-26T10:48:55.834Z,71.53
2022-08-26T10:51:27.505Z,73.09
2022-08-26T10:54:23.788Z,71.71
2022-08-26T10:57:15.274Z,72.85
2022-08-26T10:59:50.876Z,72.56
2022-08-26T11:02:37.393Z,72.83
2022-08-26T11:05:15.216Z,70.97
2022-08-26T11:07:52.688Z,71.67
2022-08-26T11:10:21.551Z,70.05
2022-08-26T11:13:09.129Z,72.36
2022-08-26T11:15:38.699Z,72.12
2022-08-26T11:18:10.990Z,70.93
2022-08-26T11:20:42.124Z,71.65
2022-08-26T11:23:21.216Z,71.56
2022-08-26T11:25:57.432Z,71.68
2022-08-26T11:28:39.731Z,72.26
2022-08-26T11:31:20.244Z,72.98
2022-08-26T11:33:52.268Z,71.90
2022-08-26T11:36:36.291Z,74.32
2022-08-26T11:39:20.885Z,74.15
2022-08-26T11:41:52.861Z,72.89
2022-08-26T11:44:23.659Z,71.54
2022-08-26T11:47:00.892Z,72.44
2022-08-26T11:49:28.860Z,71.56
2022-08-26T11:52:21.087Z,72.02
2022-08-26T11:55:11.090Z,71.75
2022-08-26T11:57:45.481Z,71.41
2022-08-26T12:00:22.232Z,71.55
2022-08-26T12:02:50.241Z,70.66
2022-08-26T12:05:25.739Z,70.73
2022-08-26T12:07:57.049Z,70.39
2022-08-26T12:10:32.754Z,70.91
2022-08-26T12:13:02.455Z,70.88
2022-08-26T12:15:31.330Z,70.64
2022-08-26T12:18:00.328Z,71.58
2022-08-26T12:20:48.298Z,71.54
2022-08-26T12:23:26.961Z,72.61
2022-08-26T12:26:05.537Z,73.26
2022-08-26T12:28:33.123Z,71.69
2022-08-26T12:31:06.039Z,71.91
2022-08-26T12:33:36.346Z,71.32
2022-08-26T12:36:05.164Z,70.93
2022-08-26T12:38:33.995Z,70.63
2022-08-26T12:41:00.711Z,70.37
2022-08-26T12:43:43.297Z,70.50
2022-08-26T12:46:17.673Z,70.53
2022-08-26T12:48:48.456Z,69.68
2022-08-26T12:51:23.908Z,69.89
2022-08-26T12:53:50.599Z,69.46
2022-08-26T12:56:33.966Z,69.91
2022-08-26T12:59:25.120Z,70.26
2022-08-26T13:01:53.584Z,70.00
2022-08-26T13:04:36.857Z,70.31
2022-08-26T13:07:18.771Z,70.63
2022-08-26T13:09:45.273Z,70.48
2022-08-26T13:12:12.184Z,71.05
2022-08-26T13:14:40.478Z,71.29
2022-08-26T13:17:07.049Z,71.21
2022-08-26T13:19:33.715Z,72.30
2022-08-26T13:22:00.766Z,71.35
2022-08-26T13:24:41.863Z,73.19
2022-08-26T13:27:11.434Z,73.71
2022-08-26T13:29:38.236Z,72.41
2022-08-26T13:32:06.713Z,73.98
2022-08-26T13:34:36.761Z,73.89
2022-08-26T13:37:03.425Z,72.29
2022-08-26T13:39:30.407Z,73.61
2022-08-26T13:41:57.090Z,73.09
2022-08-26T13:44:23.933Z,73.28
2022-08-26T13:46:50.493Z,75.40
2022-08-26T13:49:17.331Z,75.05
2022-08-26T13:51:43.865Z,73.46
2022-08-26T13:54:10.503Z,71.69
2022-08-26T13:56:37.517Z,72.07
2022-08-26T13:59:05.774Z,72.89
2022-08-26T14:01:34.078Z,72.40
2022-08-26T14:04:00.785Z,72.38
2022-08-26T14:06:27.397Z,72.70
2022-08-26T14:08:53.931Z,72.04
2022-08-26T14:11:21.524Z,72.35
2022-08-26T14:13:48.237Z,73.06
2022-08-26T14:16:25.769Z,73.55
2022-08-26T14:18:53.498Z,73.64
2022-08-26T14:21:20.668Z,72.06
2022-08-26T14:23:47.616Z,73.79
2022-08-26T14:26:28.526Z,73.10
2022-08-26T14:28:57.873Z,72.52
2022-08-26T14:31:29.078Z,72.70
2022-08-26T14:33:59.397Z,72.39
2022-08-26T14:36:32.212Z,71.76
2022-08-26T14:39:11.602Z,73.19
2022-08-26T14:41:46.032Z,73.88
2022-08-26T14:44:21.924Z,72.40
2022-08-26T14:46:50.816Z,72.11
2022-08-26T14:49:19.078Z,72.33
2022-08-26T14:51:46.119Z,71.61
2022-08-26T14:54:16.726Z,71.70
2022-08-26T14:56:59.112Z,72.81
2022-08-26T14:59:27.758Z,72.54
2022-08-26T15:01:55.267Z,71.82
2022-08-26T15:04:23.225Z,71.18
2022-08-26T15:06:50.643Z,71.23
2022-08-26T15:09:17.409Z,72.14
2022-08-26T15:11:44.605Z,72.32
2022-08-26T15:14:19.604Z,72.64
2022-08-26T15:16:48.476Z,73.98
2022-08-26T15:19:15.759Z,73.80
2022-08-26T15:21:43.429Z,72.24
2022-08-26T15:24:10.171Z,72.13
2022-08-26T15:26:39.377Z,72.97
2022-08-26T15:29:06.215Z,71.60
2022-08-26T15:31:33.893Z,72.64
2022-08-26T15:34:04.531Z,72.21
2022-08-26T15:36:33.108Z,71.41
2022-08-26T15:39:00.653Z,70.65
2022-08-26T15:41:28.355Z,71.38
2022-08-26T15:43:54.928Z,71.86
2022-08-26T15:46:21.703Z,71.21
2022-08-26T15:48:48.556Z,73.16
2022-08-26T15:51:27.950Z,72.77
2022-08-26T15:53:56.377Z,72.78
2022-08-26T15:56:27.395Z,71.95
2022-08-26T15:58:56.302Z,72.52
2022-08-26T16:01:27.169Z,71.69
2022-08-26T16:03:55.672Z,72.89
2022-08-26T16:06:25.719Z,73.32
2022-08-26T16:08:52.335Z,74.00
2022-08-26T16:11:19.841Z,73.48
2022-08-26T16:13:47.246Z,74.16
2022-08-26T16:16:14.707Z,73.21
2022-08-26T16:18:42.369Z,73.89
2022-08-26T16:21:13.562Z,73.24
2022-08-26T16:23:40.943Z,74.50
2022-08-26T16:26:15.582Z,73.71
2022-08-26T16:28:43.550Z,73.84
2022-08-26T16:31:11.131Z,74.34
2022-08-26T16:33:37.952Z,74.01
2022-08-26T16:36:06.474Z,76.92
2022-08-26T16:38:33.765Z,75.82
2022-08-26T16:41:01.258Z,77.28
2022-08-26T16:43:28.612Z,74.70
2022-08-26T16:45:56.111Z,73.30
2022-08-26T16:48:23.597Z,74.18
2022-08-26T16:50:51.173Z,74.02
2022-08-26T16:53:18.893Z,75.17
2022-08-26T16:55:47.727Z,74.94
2022-08-26T16:58:15.160Z,73.70
2022-08-26T17:00:41.886Z,74.58
2022-08-26T17:03:10.038Z,74.37
2022-08-26T17:05:37.107Z,75.44
2022-08-26T17:08:04.940Z,76.54
2022-08-26T17:10:32.818Z,74.44
2022-08-26T17:13:00.312Z,77.54
2022-08-26T17:15:27.202Z,74.33
2022-08-26T17:17:54.814Z,77.80
2022-08-26T17:20:23.180Z,76.09
2022-08-26T17:22:51.700Z,80.55
2022-08-26T17:25:24.837Z,79.60
2022-08-26T17:27:51.993Z,76.08
2022-08-26T17:30:19.675Z,77.27
2022-08-26T17:32:46.335Z,75.68
2022-08-26T17:35:14.199Z,75.51
2022-08-26T17:37:41.343Z,76.15
2022-08-26T17:40:11.624Z,76.86
2022-08-26T17:42:40.189Z,78.68
2022-08-26T17:45:08.435Z,78.94
2022-08-26T17:47:35.780Z,78.47
2022-08-26T17:50:03.854Z,81.48
2022-08-26T17:52:30.719Z,82.14
2022-08-26T17:54:57.911Z,78.86
2022-08-26T17:57:25.892Z,76.97
2022-08-26T17:59:53.687Z,79.93
2022-08-26T18:02:21.147Z,77.60
2022-08-26T18:04:48.145Z,78.48
2022-08-26T18:07:15.208Z,77.35
2022-08-26T18:09:42.020Z,76.67
2022-08-26T18:12:09.418Z,79.17
2022-08-26T18:14:36.421Z,76.64
2022-08-26T18:17:03.673Z,77.00
2022-08-26T18:19:31.393Z,78.28
2022-08-26T18:21:58.473Z,80.38
2022-08-26T18:24:25.388Z,78.90
2022-08-26T18:26:52.015Z,76.85
2022-08-26T18:29:19.927Z,76.89
2022-08-26T18:31:48.468Z,77.45
2022-08-26T18:34:16.591Z,77.97
2022-08-26T18:36:43.906Z,78.81
2022-08-26T18:39:11.848Z,77.60
2022-08-26T18:41:44.112Z,78.49
2022-08-26T18:44:13.675Z,81.91
2022-08-26T18:46:41.400Z,77.53
2022-08-26T18:49:08.464Z,78.69
2022-08-26T18:51:35.584Z,77.35
2022-08-26T18:54:05.493Z,77.72
2022-08-26T18:56:33.780Z,76.46
2022-08-26T18:59:00.635Z,77.45
2022-08-26T19:01:28.529Z,77.04
2022-08-26T19:03:57.934Z,76.42
2022-08-26T19:06:25.696Z,75.47
2022-08-26T19:08:53.801Z,76.93
2022-08-26T19:11:31.333Z,76.36
2022-08-26T19:14:01.608Z,77.00
2022-08-26T19:16:29.608Z,76.34
2022-08-26T19:18:58.876Z,79.48
2022-08-26T19:21:25.908Z,77.13
2022-08-26T19:23:56.886Z,79.94
2022-08-26T19:26:24.332Z,79.99
2022-08-26T19:28:51.350Z,80.30
2022-08-26T19:31:17.952Z,79.83
2022-08-26T19:33:45.531Z,79.22
2022-08-26T19:36:19.098Z,78.46
2022-08-26T19:38:47.594Z,78.38
2022-08-26T19:41:18.292Z,79.71
2022-08-26T19:43:46.269Z,82.28
2022-08-26T19:46:23.119Z,80.04
2022-08-26T19:48:54.049Z,78.46
2022-08-26T19:51:30.705Z,83.17
2022-08-26T19:53:59.128Z,77.56
2022-08-26T19:56:28.009Z,78.32
2022-08-26T19:58:55.600Z,78.73
2022-08-26T20:01:22.680Z,78.07
2022-08-26T20:03:49.444Z,79.68
2022-08-26T20:06:20.257Z,78.63
2022-08-26T20:08:47.189Z,78.28
2022-08-26T20:11:16.735Z,79.07
2022-08-26T20:13:45.595Z,77.76
2022-08-26T20:16:12.633Z,79.15
2022-08-26T20:18:59.879Z,77.69
2022-08-26T20:21:29.440Z,78.96
2022-08-26T20:24:04.594Z,78.76
2022-08-26T20:26:33.338Z,79.59
2022-08-26T20:29:00.358Z,77.75
2022-08-26T20:31:28.076Z,78.59
2022-08-26T20:33:54.873Z,76.50
2022-08-26T20:36:24.283Z,78.38
2022-08-26T20:38:50.991Z,77.56
2022-08-26T20:41:18.270Z,76.84
2022-08-26T20:43:46.189Z,76.97
2022-08-26T20:46:17.233Z,77.20
2022-08-26T20:48:45.878Z,77.58
2022-08-26T20:51:12.531Z,78.61
2022-08-26T20:53:39.334Z,77.88
2022-08-26T20:56:08.816Z,77.81
2022-08-26T20:58:35.936Z,78.94
2022-08-26T21:01:07.334Z,78.63
2022-08-26T21:03:35.792Z,78.54
2022-08-26T21:06:03.728Z,76.91
2022-08-26T21:08:30.661Z,78.90
2022-08-26T21:10:59.960Z,80.35
2022-08-26T21:13:26.720Z,80.88
2022-08-26T21:15:57.943Z,79.90
2022-08-26T21:18:24.951Z,78.23
2022-08-26T21:20:51.739Z,78.55
2022-08-26T21:23:19.238Z,80.74
2022-08-26T21:25:46.576Z,81.29
2022-08-26T21:28:13.253Z,78.79
2022-08-26T21:30:41.103Z,78.49
2022-08-26T21:33:08.305Z,78.45
2022-08-26T21:35:34.921Z,79.00
2022-08-26T21:38:01.834Z,78.36
2022-08-26T21:40:28.635Z,81.10
2022-08-26T21:42:55.277Z,79.94
2022-08-26T21:45:22.128Z,80.43
2022-08-26T21:47:48.825Z,80.21
2022-08-26T21:50:15.348Z,80.70
2022-08-26T21:52:41.867Z,79.88
2022-08-26T21:55:09.506Z,81.20
2022-08-26T21:57:38.797Z,78.78
2022-08-26T22:00:08.892Z,79.46
2022-08-26T22:02:36.773Z,79.37
2022-08-26T22:05:03.952Z,78.57
2022-08-26T22:07:30.531Z,77.76
2022-08-26T22:09:57.158Z,77.44
2022-08-26T22:12:23.754Z,77.07
2022-08-26T22:14:50.425Z,76.87
2022-08-26T22:17:17.143Z,78.00
2022-08-26T22:19:46.273Z,78.65
2022-08-26T22:22:14.380Z,77.07
2022-08-26T22:24:43.288Z,76.71
2022-08-26T22:27:11.973Z,78.36
2022-08-26T22:29:38.691Z,77.52
2022-08-26T22:32:05.501Z,76.73
2022-08-26T22:34:32.258Z,77.00
2022-08-26T22:36:59.643Z,77.20
2022-08-26T22:39:26.562Z,76.78
2022-08-26T22:41:55.236Z,77.44
2022-08-26T22:44:22.783Z,76.83
2022-08-26T22:46:51.675Z,76.71
2022-08-26T22:49:18.357Z,77.22
2022-08-26T22:51:45.845Z,76.60
2022-08-26T22:54:13.477Z,78.83
2022-08-26T22:56:40.481Z,76.91
2022-08-26T22:59:08.471Z,77.41
2022-08-26T23:01:38.898Z,76.75
2022-08-26T23:04:07.006Z,76.09
2022-08-26T23:06:40.340Z,76.54
2022-08-26T23:09:08.622Z,77.20
2022-08-26T23:11:35.418Z,76.79
2022-08-26T23:14:02.334Z,77.72
2022-08-26T23:16:40.719Z,78.76
2022-08-26T23:19:09.552Z,77.65
2022-08-26T23:21:36.469Z,78.39
2022-08-26T23:24:03.782Z,78.45
2022-08-26T23:26:31.706Z,76.66
2022-08-26T23:28:58.438Z,76.77
2022-08-26T23:31:25.225Z,76.33
2022-08-26T23:34:10.463Z,77.42
2022-08-26T23:36:37.034Z,76.56
2022-08-26T23:39:05.598Z,77.58
2022-08-26T23:41:35.793Z,78.44
2022-08-26T23:44:05.335Z,76.82
2022-08-26T23:46:36.299Z,77.91
2022-08-26T23:49:04.321Z,76.53
2022-08-26T23:51:50.046Z,77.12
2022-08-26T23:54:16.958Z,76.77
2022-08-26T23:56:43.964Z,77.26
2022-08-26T23:59:10.678Z,76.99
